Time;durP1;ratioP1;P1;durP2;ratioP2;P2;SDS_P1;SDS_P2;PMS_P1;PMS_P2;Temp;Humidity;BMP_temperature;BMP_pressure;BME280_temperature;BME280_humidity;BME280_pressure;Samples;Min_cycle;Max_cycle;Signal;HPM_P1;HPM_P2
2021/01/06 00:02:22;;;;;;;29.40;14.05;;;3.70;99.90;;;;;;5095148;28;20075;-66
2021/01/06 00:04:47;;;;;;;29.58;14.15;;;3.60;99.90;;;;;;5094559;28;20067;-66
2021/01/06 00:07:13;;;;;;;29.58;14.77;;;3.60;99.90;;;;;;5094514;28;20504;-66
2021/01/06 00:09:38;;;;;;;25.65;13.77;;;3.60;99.90;;;;;;5094757;28;20481;-66
2021/01/06 00:12:07;;;;;;;23.00;13.07;;;3.60;99.90;;;;;;5094053;28;20423;-66
2021/01/06 00:14:33;;;;;;;22.48;12.65;;;3.60;99.90;;;;;;5094401;28;20034;-66
2021/01/06 00:16:59;;;;;;;25.25;13.73;;;3.60;99.90;;;;;;5076713;28;20024;-66
2021/01/06 00:19:24;;;;;;;26.48;13.60;;;3.60;99.90;;;;;;5094903;28;20032;-66
2021/01/06 00:21:50;;;;;;;25.63;13.23;;;3.70;99.90;;;;;;5076400;28;20028;-66
2021/01/06 00:24:16;;;;;;;25.42;13.60;;;3.70;99.90;;;;;;5076052;28;20016;-66
2021/01/06 00:26:42;;;;;;;24.85;12.65;;;3.70;99.90;;;;;;5094415;28;20028;-67
2021/01/06 00:29:09;;;;;;;24.98;12.38;;;3.60;99.90;;;;;;5094426;28;20084;-66
2021/01/06 00:31:43;;;;;;;22.05;12.27;;;3.70;99.90;;;;;;5076348;28;20023;-66
2021/01/06 00:34:10;;;;;;;28.10;12.98;;;3.70;99.90;;;;;;5094628;28;20472;-66
2021/01/06 00:36:35;;;;;;;20.67;11.75;;;3.70;99.90;;;;;;5094555;28;20024;-66
2021/01/06 00:39:05;;;;;;;21.45;12.52;;;3.60;99.90;;;;;;5094575;28;20085;-68
2021/01/06 00:41:33;;;;;;;20.80;11.00;;;3.70;99.90;;;;;;5094536;28;20020;-67
2021/01/06 00:43:59;;;;;;;20.48;11.20;;;3.70;99.90;;;;;;5094402;28;20020;-66
2021/01/06 00:46:29;;;;;;;20.42;11.40;;;3.60;99.90;;;;;;5094338;28;20032;-68
2021/01/06 00:48:55;;;;;;;23.88;12.13;;;3.60;99.90;;;;;;5076087;28;20044;-67
2021/01/06 00:51:20;;;;;;;22.83;11.82;;;3.60;99.90;;;;;;5093855;28;20030;-67
2021/01/06 00:53:46;;;;;;;19.90;10.77;;;3.60;99.90;;;;;;5075717;28;20447;-68
2021/01/06 00:56:11;;;;;;;19.98;10.70;;;3.60;99.90;;;;;;5094308;28;20035;-67
2021/01/06 00:58:37;;;;;;;18.50;9.93;;;3.60;99.90;;;;;;5075913;28;20103;-67
2021/01/06 01:01:02;;;;;;;20.42;10.85;;;3.60;99.90;;;;;;5094233;28;20024;-67
2021/01/06 01:03:28;;;;;;;17.45;9.73;;;3.60;99.90;;;;;;5075548;28;20465;-67
2021/01/06 01:05:54;;;;;;;21.27;10.20;;;3.70;99.90;;;;;;5076212;28;20020;-68
2021/01/06 01:08:19;;;;;;;15.82;9.35;;;3.70;99.90;;;;;;5093460;28;20070;-68
2021/01/06 01:10:47;;;;;;;19.95;11.05;;;3.60;99.90;;;;;;5094151;28;20073;-67
2021/01/06 01:13:19;;;;;;;18.70;10.90;;;3.60;99.90;;;;;;5094098;28;20103;-68
2021/01/06 01:15:47;;;;;;;19.30;10.15;;;3.60;99.90;;;;;;5076299;28;20016;-68
2021/01/06 01:18:17;;;;;;;20.90;10.50;;;3.70;99.90;;;;;;5093539;28;20028;-67
2021/01/06 01:20:44;;;;;;;18.67;9.55;;;3.60;99.90;;;;;;5075774;28;20043;-66
2021/01/06 01:23:12;;;;;;;15.68;9.38;;;3.60;99.90;;;;;;5095223;28;20016;-66
2021/01/06 01:25:37;;;;;;;20.33;9.32;;;3.60;99.90;;;;;;5097649;28;20016;-66
2021/01/06 01:28:03;;;;;;;17.25;9.88;;;3.50;99.90;;;;;;5097856;28;20086;-66
2021/01/06 01:30:30;;;;;;;18.15;10.05;;;3.60;99.90;;;;;;5046714;28;20028;-66
2021/01/06 01:32:55;;;;;;;20.25;10.38;;;3.50;99.90;;;;;;5098067;28;20020;-66
2021/01/06 01:35:24;;;;;;;18.55;10.35;;;3.50;99.90;;;;;;5098069;28;20046;-66
2021/01/06 01:37:50;;;;;;;18.80;10.25;;;3.50;99.90;;;;;;5097753;28;20021;-67
2021/01/06 01:40:21;;;;;;;19.73;9.90;;;3.50;99.90;;;;;;5097937;28;20077;-67
2021/01/06 01:42:50;;;;;;;21.52;11.15;;;3.50;99.90;;;;;;5097896;28;20161;-67
2021/01/06 01:45:16;;;;;;;18.95;10.30;;;3.50;99.90;;;;;;5097622;28;20020;-66
2021/01/06 01:47:53;;;;;;;20.48;10.70;;;3.50;99.90;;;;;;5079688;28;20076;-66
2021/01/06 01:50:21;;;;;;;24.17;12.95;;;3.50;99.90;;;;;;5080585;28;20043;-67
2021/01/06 01:52:51;;;;;;;22.15;11.95;;;3.50;99.90;;;;;;5097680;28;20020;-67
2021/01/06 01:55:20;;;;;;;24.83;11.63;;;3.50;99.90;;;;;;5079441;28;20111;-66
2021/01/06 01:57:52;;;;;;;25.95;12.00;;;3.50;99.90;;;;;;5097050;28;20115;-66
2021/01/06 02:00:20;;;;;;;22.92;12.52;;;3.50;99.90;;;;;;5097284;28;20020;-67
2021/01/06 02:03:27;;;;;;;23.58;11.90;;;3.50;99.90;;;;;;5097213;28;20469;-67
2021/01/06 02:05:58;;;;;;;25.08;12.45;;;3.50;99.90;;;;;;5079298;28;20019;-67
2021/01/06 02:08:36;;;;;;;23.38;12.80;;;3.50;99.90;;;;;;5097080;28;20097;-67
2021/01/06 02:11:07;;;;;;;25.20;12.38;;;3.40;99.90;;;;;;5078678;28;20141;-67
2021/01/06 02:14:00;;;;;;;27.08;12.27;;;3.40;99.90;;;;;;5078592;28;20023;-66
2021/01/06 02:16:39;;;;;;;22.50;13.68;;;3.40;99.90;;;;;;5081639;28;20455;-66
2021/01/06 02:19:06;;;;;;;21.98;11.75;;;3.40;99.90;;;;;;5097209;28;20055;-66
2021/01/06 02:21:34;;;;;;;25.50;12.95;;;3.40;99.90;;;;;;5097198;28;20069;-67
2021/01/06 02:24:24;;;;;;;23.15;12.68;;;3.40;99.90;;;;;;5096850;28;20032;-67
2021/01/06 02:26:50;;;;;;;25.08;12.40;;;3.40;99.90;;;;;;5096701;28;20024;-67
2021/01/06 02:29:16;;;;;;;25.77;13.38;;;3.40;99.90;;;;;;5097024;28;20506;-66
2021/01/06 02:31:42;;;;;;;27.95;13.55;;;3.40;99.90;;;;;;5096693;28;20020;-66
2021/01/06 02:34:09;;;;;;;28.20;14.15;;;3.40;99.90;;;;;;5096478;28;20016;-67
2021/01/06 02:36:35;;;;;;;29.42;13.73;;;3.40;99.90;;;;;;5078086;28;20350;-67
2021/01/06 02:39:00;;;;;;;25.30;13.57;;;3.40;99.90;;;;;;5061869;28;20024;-66
2021/01/06 02:41:26;;;;;;;25.33;13.05;;;3.40;99.90;;;;;;5096253;28;20069;-66
2021/01/06 02:43:52;;;;;;;25.50;13.18;;;3.40;99.90;;;;;;5096763;28;20028;-66
2021/01/06 02:46:18;;;;;;;26.13;13.38;;;3.40;99.90;;;;;;5078857;28;20024;-66
2021/01/06 02:48:46;;;;;;;24.38;12.00;;;3.40;99.90;;;;;;5096609;28;20107;-66
2021/01/06 02:51:17;;;;;;;26.75;13.77;;;3.40;99.90;;;;;;5096581;28;20461;-66
2021/01/06 02:53:51;;;;;;;24.58;13.00;;;3.50;99.90;;;;;;5096530;28;20031;-67
2021/01/06 02:56:20;;;;;;;23.50;13.88;;;3.40;99.90;;;;;;5096531;28;20027;-66
2021/01/06 02:58:47;;;;;;;23.05;12.40;;;3.40;99.90;;;;;;5095880;28;20028;-66
2021/01/06 03:01:16;;;;;;;29.33;13.25;;;3.40;99.90;;;;;;5096409;28;20103;-67
2021/01/06 03:03:41;;;;;;;28.75;13.23;;;3.40;99.90;;;;;;5095809;28;20028;-65
2021/01/06 03:06:15;;;;;;;23.38;12.07;;;3.40;99.90;;;;;;5095773;28;20027;-66
2021/01/06 03:08:40;;;;;;;26.85;13.27;;;3.30;99.90;;;;;;5075992;28;20043;-66
2021/01/06 03:11:08;;;;;;;19.67;11.32;;;3.20;99.90;;;;;;5075933;28;20370;-65
2021/01/06 03:13:34;;;;;;;24.05;13.05;;;3.30;99.90;;;;;;5075377;28;20119;-65
2021/01/06 03:16:00;;;;;;;25.33;12.50;;;3.20;99.90;;;;;;5075822;28;20096;-65
2021/01/06 03:18:26;;;;;;;24.85;13.75;;;3.20;99.90;;;;;;5075585;28;20039;-68
2021/01/06 03:20:56;;;;;;;28.75;13.52;;;3.20;99.90;;;;;;5075749;28;20150;-67
2021/01/06 03:23:34;;;;;;;28.10;13.60;;;3.20;99.90;;;;;;5075395;28;20032;-65
2021/01/06 03:26:04;;;;;;;30.27;14.35;;;3.20;99.90;;;;;;5075645;28;20028;-65
2021/01/06 03:28:32;;;;;;;29.73;15.35;;;3.10;99.90;;;;;;5075533;28;20031;-67
2021/01/06 03:30:58;;;;;;;30.88;13.68;;;3.20;99.90;;;;;;5075301;28;20012;-68
2021/01/06 03:33:47;;;;;;;26.65;14.60;;;3.20;99.90;;;;;;5040517;28;20074;-66
2021/01/06 03:36:18;;;;;;;27.38;14.43;;;3.20;99.90;;;;;;5057318;28;20017;-66
2021/01/06 03:38:53;;;;;;;26.33;13.13;;;3.10;99.90;;;;;;5075429;28;20424;-66
2021/01/06 03:41:19;;;;;;;25.75;13.23;;;3.10;99.90;;;;;;5075362;28;20016;-68
2021/01/06 03:43:52;;;;;;;24.30;13.63;;;3.10;99.90;;;;;;5075311;28;20025;-67
2021/01/06 03:46:29;;;;;;;24.45;11.50;;;3.10;99.90;;;;;;5056159;28;20154;-67
2021/01/06 03:51:43;;;;;;;23.05;12.43;;;3.10;99.90;;;;;;5112184;27;20351;-67
2021/01/06 03:54:27;;;;;;;23.77;12.50;;;3.10;99.90;;;;;;5111957;28;20058;-67
2021/01/06 03:56:53;;;;;;;22.15;12.68;;;3.00;99.90;;;;;;5110052;28;20413;-67
2021/01/06 03:59:23;;;;;;;22.25;12.32;;;3.10;99.90;;;;;;5111871;28;20516;-67
2021/01/06 04:02:16;;;;;;;22.17;12.35;;;3.10;99.90;;;;;;5111553;28;20047;-67
2021/01/06 04:04:48;;;;;;;23.80;12.73;;;3.00;99.90;;;;;;5094118;28;20103;-67
2021/01/06 04:07:19;;;;;;;25.27;14.85;;;3.00;99.90;;;;;;5111466;28;20488;-67
2021/01/06 04:09:53;;;;;;;25.55;14.23;;;3.00;99.90;;;;;;5111327;28;20465;-67
2021/01/06 04:12:19;;;;;;;30.33;14.45;;;3.00;99.90;;;;;;5110313;28;20024;-67
2021/01/06 04:14:46;;;;;;;25.00;14.05;;;3.00;99.90;;;;;;5111306;28;20020;-67
2021/01/06 04:17:19;;;;;;;23.85;13.82;;;3.00;99.90;;;;;;5092725;28;20528;-67
2021/01/06 04:20:14;;;;;;;28.27;14.95;;;3.00;99.90;;;;;;5111440;28;20102;-67
2021/01/06 04:22:50;;;;;;;28.70;15.90;;;3.00;99.90;;;;;;5110698;28;20019;-67
2021/01/06 04:25:27;;;;;;;28.38;15.95;;;3.00;99.90;;;;;;5111338;28;20032;-67
2021/01/06 04:27:56;;;;;;;29.60;15.88;;;3.00;99.90;;;;;;5110755;28;20019;-67
2021/01/06 04:30:28;;;;;;;31.15;16.60;;;3.00;99.90;;;;;;5110883;28;20498;-67
2021/01/06 04:32:54;;;;;;;34.53;17.17;;;3.00;99.90;;;;;;5111234;28;20034;-67
2021/01/06 04:35:20;;;;;;;30.55;17.23;;;2.90;99.90;;;;;;5110865;28;20103;-67
2021/01/06 04:37:46;;;;;;;33.55;16.85;;;3.00;99.90;;;;;;5111110;28;20111;-67
2021/01/06 04:40:15;;;;;;;32.10;17.45;;;3.00;99.90;;;;;;5111060;28;20481;-67
2021/01/06 04:42:43;;;;;;;33.33;18.67;;;3.00;99.90;;;;;;5111023;28;20023;-67
2021/01/06 04:45:15;;;;;;;35.13;18.60;;;3.00;99.90;;;;;;5110981;28;20024;-67
2021/01/06 04:51:05;;;;;;;35.67;17.88;;;3.00;99.90;;;;;;5112196;27;20404;-66
2021/01/06 04:54:10;;;;;;;38.08;18.13;;;3.00;99.90;;;;;;5110131;28;20024;-66
2021/01/06 04:56:49;;;;;;;34.42;17.88;;;2.90;99.90;;;;;;5111463;28;20016;-68
2021/01/06 04:59:45;;;;;;;38.00;17.83;;;3.00;99.90;;;;;;5111243;28;20028;-68
2021/01/06 05:02:50;;;;;;;35.97;18.38;;;2.90;99.90;;;;;;5111423;28;20024;-68
2021/01/06 05:05:39;;;;;;;34.05;18.35;;;2.90;99.90;;;;;;5111001;28;20116;-67
2021/01/06 05:08:31;;;;;;;35.15;17.98;;;2.90;99.90;;;;;;5111325;28;20020;-67
2021/01/06 05:11:14;;;;;;;34.90;18.35;;;2.90;99.90;;;;;;5110923;28;20031;-66
2021/01/06 05:13:50;;;;;;;37.88;20.13;;;2.90;99.90;;;;;;5111526;28;20012;-66
2021/01/06 05:16:21;;;;;;;35.67;17.48;;;2.90;99.90;;;;;;5111506;28;20077;-67
2021/01/06 05:18:47;;;;;;;34.92;18.77;;;3.00;99.90;;;;;;5111405;28;20528;-67
2021/01/06 05:21:16;;;;;;;36.22;19.05;;;2.90;99.90;;;;;;5111404;28;20059;-67
2021/01/06 05:23:43;;;;;;;35.08;18.50;;;2.90;99.90;;;;;;5111361;28;20020;-67
2021/01/06 05:26:09;;;;;;;35.92;18.92;;;2.90;99.90;;;;;;5109722;28;20078;-67
2021/01/06 05:28:35;;;;;;;40.17;18.15;;;2.80;99.90;;;;;;5110895;28;20039;-67
2021/01/06 05:31:00;;;;;;;39.20;18.73;;;2.80;99.90;;;;;;5109699;28;20030;-67
2021/01/06 05:33:39;;;;;;;36.72;18.50;;;2.80;99.90;;;;;;5110852;28;20019;-67
2021/01/06 05:36:05;;;;;;;38.80;18.00;;;2.80;99.90;;;;;;5110571;28;20020;-67
2021/01/06 05:38:31;;;;;;;39.47;20.40;;;2.80;99.90;;;;;;5110737;28;20035;-66
2021/01/06 05:40:57;;;;;;;37.88;19.52;;;2.80;99.90;;;;;;5110735;28;20153;-67
2021/01/06 05:43:39;;;;;;;38.85;19.20;;;2.80;99.90;;;;;;5110899;28;20488;-67
2021/01/06 05:46:08;;;;;;;40.15;19.70;;;2.70;99.90;;;;;;5109829;28;20021;-67
2021/01/06 05:48:41;;;;;;;36.00;18.48;;;2.70;99.90;;;;;;5109087;28;20381;-67
2021/01/06 05:51:20;;;;;;;38.42;18.27;;;2.70;99.90;;;;;;5110305;28;20020;-67
2021/01/06 05:53:56;;;;;;;36.72;18.38;;;2.70;99.90;;;;;;5110780;28;20069;-67
2021/01/06 05:56:53;;;;;;;36.28;19.33;;;2.70;99.90;;;;;;5110512;28;20373;-67
2021/01/06 05:59:45;;;;;;;41.28;17.80;;;2.70;99.90;;;;;;5110733;28;20028;-67
2021/01/06 06:02:43;;;;;;;36.35;17.02;;;2.70;99.90;;;;;;5096025;28;20031;-66
2021/01/06 06:05:33;;;;;;;29.83;15.55;;;2.70;99.90;;;;;;5095205;28;20027;-66
2021/01/06 06:08:23;;;;;;;34.90;17.10;;;2.80;99.90;;;;;;5096361;28;20032;-68
2021/01/06 06:11:14;;;;;;;36.78;17.13;;;2.70;99.90;;;;;;5096227;28;20124;-68
2021/01/06 06:14:19;;;;;;;34.30;17.00;;;2.70;99.90;;;;;;5096834;28;20106;-65
2021/01/06 06:17:09;;;;;;;34.17;16.27;;;2.70;99.90;;;;;;5096075;28;20028;-66
2021/01/06 06:19:52;;;;;;;35.55;16.52;;;2.70;99.90;;;;;;5096174;28;20101;-66
2021/01/06 06:22:23;;;;;;;33.90;16.63;;;2.70;99.90;;;;;;5096699;28;20099;-66
2021/01/06 06:25:05;;;;;;;33.88;16.50;;;2.70;99.90;;;;;;5096146;28;20488;-66
2021/01/06 06:30:25;;;;;;;32.78;15.70;;;2.70;99.90;;;;;;5112339;27;20835;-65
2021/01/06 06:32:51;;;;;;;34.47;16.65;;;2.70;99.90;;;;;;5110923;28;20477;-65
2021/01/06 06:35:27;;;;;;;33.33;15.70;;;2.60;99.90;;;;;;5117012;28;20022;-66
2021/01/06 06:37:58;;;;;;;33.83;17.42;;;2.60;99.90;;;;;;5114661;27;20144;-67
2021/01/06 06:40:26;;;;;;;30.42;16.17;;;2.60;99.90;;;;;;5110461;28;20473;-67
2021/01/06 06:45:45;;;;;;;29.02;15.52;;;2.70;99.90;;;;;;5110519;27;20850;-68
2021/01/06 06:48:50;;;;;;;33.17;16.92;;;2.70;99.90;;;;;;5109030;28;20511;-68
2021/01/06 06:51:39;;;;;;;31.30;15.75;;;2.70;99.90;;;;;;5109740;28;20077;-68
2021/01/06 06:54:18;;;;;;;29.48;15.40;;;2.70;99.90;;;;;;5111680;28;20080;-68
2021/01/06 06:56:57;;;;;;;28.13;16.08;;;2.70;99.90;;;;;;5110276;28;20038;-68
2021/01/06 06:59:47;;;;;;;34.30;16.05;;;2.60;99.90;;;;;;5111615;28;20211;-68
2021/01/06 07:02:13;;;;;;;34.50;16.15;;;2.70;99.90;;;;;;5110551;28;20385;-68
2021/01/06 07:04:47;;;;;;;31.00;16.38;;;2.70;99.90;;;;;;5111478;28;20085;-67
2021/01/06 07:07:51;;;;;;;34.60;16.55;;;2.70;99.90;;;;;;5111291;28;20532;-67
2021/01/06 07:10:28;;;;;;;33.30;17.00;;;2.70;99.90;;;;;;5110975;28;20024;-68
2021/01/06 07:13:00;;;;;;;29.75;15.82;;;2.70;99.90;;;;;;5111414;28;20045;-68
2021/01/06 07:15:39;;;;;;;33.20;17.02;;;2.70;99.90;;;;;;5109660;28;20031;-68
2021/01/06 07:18:27;;;;;;;31.60;16.45;;;2.70;99.90;;;;;;5111235;28;20047;-68
2021/01/06 07:21:16;;;;;;;30.27;16.45;;;2.70;99.90;;;;;;5110840;28;20031;-68
2021/01/06 07:23:52;;;;;;;29.92;15.77;;;2.70;99.90;;;;;;5110709;28;20024;-68
2021/01/06 07:26:24;;;;;;;32.35;17.20;;;2.60;99.90;;;;;;5109253;28;20028;-68
2021/01/06 07:28:58;;;;;;;30.63;16.10;;;2.70;99.90;;;;;;5109659;28;20020;-69
2021/01/06 07:31:26;;;;;;;31.33;16.30;;;2.70;99.90;;;;;;5107935;28;20020;-69
2021/01/06 07:33:55;;;;;;;28.77;14.93;;;2.70;99.90;;;;;;5102048;28;20400;-69
2021/01/06 07:36:27;;;;;;;30.50;16.65;;;2.70;99.90;;;;;;5110440;28;20023;-69
2021/01/06 07:38:54;;;;;;;32.28;15.07;;;2.70;99.90;;;;;;5109633;28;20028;-69
2021/01/06 07:41:21;;;;;;;33.53;16.80;;;2.70;99.90;;;;;;5108659;28;20032;-69
2021/01/06 07:47:09;;;;;;;34.13;15.63;;;2.70;99.90;;;;;;5111109;27;20396;-68
2021/01/06 07:49:53;;;;;;;32.95;16.70;;;2.70;99.90;;;;;;5111073;28;20035;-69
2021/01/06 07:52:46;;;;;;;34.42;17.88;;;2.70;99.90;;;;;;5110777;28;20012;-69
2021/01/06 07:55:42;;;;;;;30.25;16.25;;;2.70;99.90;;;;;;5110091;28;20084;-70
2021/01/06 07:58:13;;;;;;;35.08;17.45;;;2.70;99.90;;;;;;5110918;28;20020;-69
2021/01/06 08:00:53;;;;;;;32.35;17.88;;;2.70;99.90;;;;;;5110315;28;20020;-70
2021/01/06 08:03:46;;;;;;;32.47;16.85;;;2.70;99.90;;;;;;5089164;28;20055;-70
2021/01/06 08:06:12;;;;;;;;;;;2.70;99.90;;;;;;5122858;28;20017;-70
2021/01/06 08:08:47;;;;;;;32.25;16.90;;;2.70;99.90;;;;;;5129681;28;20253;-70
2021/01/06 08:11:16;;;;;;;29.73;15.82;;;2.70;99.90;;;;;;5131389;27;20414;-70
2021/01/06 08:14:01;;;;;;;31.52;16.02;;;2.80;99.90;;;;;;5131231;27;20019;-70
2021/01/06 08:16:43;;;;;;;27.35;15.50;;;2.80;99.90;;;;;;5131137;27;20491;-69
2021/01/06 08:19:41;;;;;;;34.72;17.85;;;2.70;99.90;;;;;;5131604;27;20023;-69
2021/01/06 08:25:05;;;;;;;28.33;16.20;;;2.70;99.90;;;;;;5111485;27;20396;-67
2021/01/06 08:27:36;;;;;;;29.92;16.83;;;2.70;99.90;;;;;;5110256;28;20095;-68
2021/01/06 08:30:32;;;;;;;29.15;15.57;;;2.80;99.90;;;;;;5109982;28;20012;-67
2021/01/06 08:33:11;;;;;;;31.48;16.85;;;2.90;99.90;;;;;;5111226;28;20024;-67
2021/01/06 08:35:40;;;;;;;27.20;15.23;;;2.80;99.90;;;;;;5110729;28;20028;-67
2021/01/06 08:38:28;;;;;;;32.35;16.88;;;2.90;99.90;;;;;;5110936;28;20073;-68
2021/01/06 08:40:55;;;;;;;38.15;17.83;;;2.90;99.90;;;;;;5111267;28;20024;-71
2021/01/06 08:43:21;;;;;;;28.27;15.82;;;2.90;99.90;;;;;;5108840;28;20020;-71
2021/01/06 08:45:57;;;;;;;26.35;15.23;;;2.90;99.90;;;;;;5109208;28;20073;-70
2021/01/06 08:48:30;;;;;;;26.33;14.80;;;2.90;99.90;;;;;;5108861;28;20016;-71
2021/01/06 08:51:06;;;;;;;31.00;16.42;;;2.90;99.90;;;;;;5108003;28;20098;-71
2021/01/06 08:53:36;;;;;;;30.30;16.08;;;2.90;99.90;;;;;;5110790;28;20024;-70
2021/01/06 08:56:05;;;;;;;32.00;15.50;;;2.90;99.90;;;;;;5111227;28;20030;-71
2021/01/06 08:58:48;;;;;;;27.85;15.63;;;2.90;99.90;;;;;;5109151;28;20076;-71
2021/01/06 09:01:33;;;;;;;;;;;2.80;99.90;;;;;;5110781;28;20473;-70
2021/01/06 09:04:08;;;;;;;28.08;15.45;;;2.80;99.90;;;;;;5108967;28;19923;-68
2021/01/06 09:06:48;;;;;;;28.55;15.10;;;2.90;99.90;;;;;;5109269;28;20499;-68
2021/01/06 09:09:37;;;;;;;28.17;15.68;;;2.90;99.90;;;;;;5110683;28;20023;-70
2021/01/06 09:12:21;;;;;;;26.85;15.35;;;3.00;99.90;;;;;;5110253;28;20465;-68
2021/01/06 09:14:47;;;;;;;23.23;13.90;;;2.90;99.90;;;;;;5109340;28;20389;-69
2021/01/06 09:17:21;;;;;;;24.33;13.10;;;2.90;99.90;;;;;;5110555;28;20019;-69
2021/01/06 09:19:54;;;;;;;22.23;12.57;;;2.90;99.90;;;;;;5108898;28;20065;-68
2021/01/06 09:22:20;;;;;;;24.13;13.30;;;2.80;99.90;;;;;;5091737;28;20384;-71
2021/01/06 09:24:46;;;;;;;24.10;12.32;;;2.80;99.90;;;;;;5109944;28;20431;-69
2021/01/06 09:27:41;;;;;;;21.77;12.52;;;2.90;99.90;;;;;;5109366;28;20016;-69
2021/01/06 09:30:22;;;;;;;22.40;12.23;;;3.00;99.90;;;;;;5108835;28;20024;-69
2021/01/06 09:32:49;;;;;;;22.20;12.23;;;2.90;99.90;;;;;;5106390;28;20077;-69
2021/01/06 09:35:19;;;;;;;21.02;12.15;;;3.00;99.90;;;;;;5101024;28;20031;-68
2021/01/06 09:37:58;;;;;;;22.73;13.00;;;3.00;99.90;;;;;;5095534;28;20016;-69
2021/01/06 09:40:27;;;;;;;22.73;12.90;;;2.90;99.90;;;;;;5096036;28;20538;-69
2021/01/06 09:43:32;;;;;;;25.35;13.00;;;2.90;99.90;;;;;;5094933;28;20032;-71
2021/01/06 09:45:58;;;;;;;24.20;12.70;;;2.90;99.90;;;;;;5096129;28;20465;-71
2021/01/06 09:48:24;;;;;;;25.25;12.93;;;3.00;99.90;;;;;;5094351;28;20039;-70
2021/01/06 09:50:53;;;;;;;22.80;13.45;;;3.00;99.90;;;;;;5096101;28;20051;-71
2021/01/06 09:53:23;;;;;;;21.73;13.10;;;3.00;99.90;;;;;;5095652;28;20024;-70
2021/01/06 09:55:52;;;;;;;22.20;13.38;;;3.00;99.90;;;;;;5095131;28;20063;-70
2021/01/06 09:58:31;;;;;;;24.73;13.82;;;3.00;99.90;;;;;;5095995;28;20074;-70
2021/01/06 10:01:06;;;;;;;22.40;12.55;;;3.00;99.90;;;;;;5094761;28;20028;-69
2021/01/06 10:03:35;;;;;;;24.23;13.63;;;3.10;99.90;;;;;;5095248;28;20119;-72
2021/01/06 10:06:34;;;;;;;25.95;14.82;;;3.00;99.90;;;;;;5093908;28;20460;-69
2021/01/06 10:09:07;;;;;;;29.88;14.52;;;3.00;99.90;;;;;;5095392;28;20032;-69
2021/01/06 10:17:28;;;;;;;31.00;16.83;;;2.90;99.90;;;;;;5111237;27;20343;-69
2021/01/06 10:20:22;;;;;;;26.05;15.57;;;3.00;99.90;;;;;;5111002;28;20032;-69
2021/01/06 10:23:02;;;;;;;33.92;16.73;;;2.90;99.90;;;;;;5110862;28;20081;-69
2021/01/06 10:25:38;;;;;;;28.77;15.43;;;2.90;99.90;;;;;;5110951;28;20027;-69
2021/01/06 10:28:33;;;;;;;33.22;16.77;;;2.90;99.90;;;;;;5110958;28;20016;-70
2021/01/06 10:31:09;;;;;;;38.97;18.45;;;2.90;99.90;;;;;;5110926;28;20031;-68
2021/01/06 10:33:55;;;;;;;35.83;18.75;;;3.00;99.90;;;;;;5110972;28;20061;-69
2021/01/06 10:37:01;;;;;;;34.20;16.45;;;2.90;99.90;;;;;;5110608;28;20027;-69
2021/01/06 10:39:35;;;;;;;32.92;17.30;;;3.00;99.90;;;;;;5110221;28;20028;-68
2021/01/06 10:42:05;;;;;;;32.83;17.33;;;3.00;99.90;;;;;;5108832;28;20055;-68
2021/01/06 10:44:35;;;;;;;33.88;19.00;;;3.00;99.90;;;;;;5110152;28;20473;-69
2021/01/06 10:47:40;;;;;;;36.50;18.98;;;3.00;99.90;;;;;;5110761;28;20493;-69
2021/01/06 10:50:29;;;;;;;34.30;18.38;;;3.00;99.90;;;;;;5090197;28;20103;-69
2021/01/06 10:53:18;;;;;;;43.17;21.42;;;3.00;99.90;;;;;;5089747;28;20027;-69
2021/01/06 10:56:07;;;;;;;39.70;20.20;;;3.00;99.90;;;;;;5107197;28;20491;-68
2021/01/06 10:58:58;;;;;;;39.08;20.58;;;2.80;99.90;;;;;;5105963;28;20044;-71
2021/01/06 11:04:23;;;;;;;41.15;21.23;;;2.90;99.90;;;;;;5070314;28;20427;-69
2021/01/06 11:07:14;;;;;;;36.90;19.85;;;3.00;99.90;;;;;;5068911;28;20123;-69
2021/01/06 11:10:14;;;;;;;36.20;19.05;;;3.00;99.90;;;;;;5069398;28;20029;-70
2021/01/06 11:13:07;;;;;;;35.92;20.00;;;3.10;99.90;;;;;;5069996;28;20049;-70
2021/01/06 11:15:48;;;;;;;39.60;19.65;;;3.20;99.90;;;;;;5070001;28;20111;-70
2021/01/06 11:21:42;;;;;;;35.95;18.77;;;3.10;99.90;;;;;;5111072;27;20347;-70
2021/01/06 11:24:47;;;;;;;34.95;17.90;;;3.10;99.90;;;;;;5111511;28;20023;-70
2021/01/06 11:27:37;;;;;;;34.40;18.60;;;3.20;99.90;;;;;;5110842;28;20529;-70
2021/01/06 11:33:28;;;;;;;33.88;18.25;;;3.20;99.90;;;;;;5111168;27;20351;-69
2021/01/06 11:36:13;;;;;;;33.47;17.40;;;3.20;99.90;;;;;;5111264;28;20416;-71
2021/01/06 11:41:23;;;;;;;29.35;16.02;;;3.20;99.90;;;;;;5111359;27;20302;-69
2021/01/06 11:43:56;;;;;;;;;;;3.30;99.90;;;;;;5111649;28;20027;-70
2021/01/06 11:46:54;;;;;;;31.88;15.52;;;3.30;99.90;;;;;;5111134;28;19957;-70
2021/01/06 11:49:45;;;;;;;28.25;14.93;;;3.30;99.90;;;;;;5109991;28;20023;-69
2021/01/06 11:52:34;;;;;;;28.40;16.25;;;3.40;99.90;;;;;;5110863;28;20020;-69
2021/01/06 11:55:30;;;;;;;29.85;16.50;;;3.30;99.90;;;;;;5110671;28;20020;-70
2021/01/06 11:58:28;;;;;;;26.73;15.50;;;3.30;99.90;;;;;;5089391;28;20037;-70
2021/01/06 12:01:21;;;;;;;33.40;16.85;;;3.40;99.90;;;;;;5090368;28;20051;-71
2021/01/06 12:04:26;;;;;;;30.40;15.65;;;3.40;99.90;;;;;;5090146;28;20077;-71
2021/01/06 12:07:14;;;;;;;31.13;15.32;;;3.40;99.90;;;;;;5090158;28;20024;-71
2021/01/06 12:10:06;;;;;;;27.00;15.27;;;3.60;99.90;;;;;;5088954;28;20021;-70
2021/01/06 12:12:49;;;;;;;31.02;16.55;;;3.40;99.90;;;;;;5090142;28;20024;-69
2021/01/06 12:18:02;;;;;;;29.85;15.18;;;3.30;99.90;;;;;;5111032;27;20348;-70
2021/01/06 12:20:34;;;;;;;26.55;16.02;;;3.50;99.90;;;;;;5111158;28;20032;-70
2021/01/06 12:23:19;;;;;;;31.23;15.45;;;3.50;99.90;;;;;;5111740;28;20016;-70
2021/01/06 12:25:51;;;;;;;28.98;14.82;;;3.50;99.90;;;;;;5110285;28;20012;-71
2021/01/06 12:28:45;;;;;;;24.58;15.27;;;3.40;99.90;;;;;;5109387;28;20027;-70
2021/01/06 12:31:20;;;;;;;28.45;16.55;;;3.30;99.90;;;;;;5110040;28;20077;-70
2021/01/06 12:34:08;;;;;;;27.65;15.48;;;3.30;99.90;;;;;;5110551;28;20044;-70
2021/01/06 12:36:55;;;;;;;26.50;14.90;;;3.20;99.90;;;;;;5110371;28;20024;-69
2021/01/06 12:39:30;;;;;;;32.75;16.67;;;3.30;99.90;;;;;;5110532;28;20024;-70
2021/01/06 12:42:04;;;;;;;42.58;17.83;;;3.40;99.90;;;;;;5110049;28;20020;-70
2021/01/06 12:44:30;;;;;;;;;;;3.60;99.90;;;;;;5110950;28;20098;-70
2021/01/06 12:47:02;;;;;;;25.73;14.13;;;3.50;99.90;;;;;;5110592;28;19904;-70
2021/01/06 12:49:37;;;;;;;26.00;15.18;;;3.50;99.90;;;;;;5110600;28;20024;-71
2021/01/06 12:52:29;;;;;;;26.60;14.75;;;3.40;99.90;;;;;;5108363;28;20524;-70
2021/01/06 12:55:10;;;;;;;27.90;15.60;;;3.40;99.90;;;;;;5110385;28;20114;-70
2021/01/06 12:57:47;;;;;;;27.73;14.95;;;3.30;99.90;;;;;;5110145;28;20424;-69
2021/01/06 13:00:37;;;;;;;30.88;15.80;;;3.30;99.90;;;;;;5108938;28;20031;-70
2021/01/06 13:03:32;;;;;;;23.10;13.30;;;3.40;99.90;;;;;;5110204;28;20049;-69
2021/01/06 13:06:12;;;;;;;24.88;13.38;;;3.50;99.90;;;;;;5109838;28;20027;-68
2021/01/06 13:11:48;;;;;;;24.73;14.13;;;3.70;99.90;;;;;;5111378;27;20351;-68
2021/01/06 13:14:37;;;;;;;28.75;15.13;;;3.90;99.90;;;;;;5110691;28;20032;-68
2021/01/06 13:17:25;;;;;;;31.13;15.93;;;3.80;99.90;;;;;;5111105;28;20052;-68
2021/01/06 13:20:16;;;;;;;28.38;15.15;;;3.70;99.90;;;;;;5110679;28;20020;-69
2021/01/06 13:25:34;;;;;;;27.77;15.18;;;3.70;99.90;;;;;;5111424;27;20575;-69
2021/01/06 13:28:08;;;;;;;34.95;15.70;;;3.60;99.90;;;;;;5109825;28;20024;-69
2021/01/06 13:30:39;;;;;;;29.05;16.13;;;3.80;99.90;;;;;;5110294;28;20024;-69
2021/01/06 13:38:54;;;;;;;22.90;17.38;;;3.70;99.90;;;;;;5110222;27;20386;-69
2021/01/06 13:41:45;;;;;;;27.15;15.35;;;3.70;99.90;;;;;;5109905;28;20503;-69
2021/01/06 13:47:09;;;;;;;26.67;14.13;;;3.70;99.90;;;;;;5090677;28;20361;-69
2021/01/06 13:49:42;;;;;;;23.13;14.50;;;3.70;99.90;;;;;;5089284;28;20025;-69
2021/01/06 13:52:29;;;;;;;27.30;15.13;;;3.70;99.90;;;;;;5090699;28;20054;-69
2021/01/06 13:55:04;;;;;;;26.27;15.07;;;3.80;99.90;;;;;;5090740;28;20024;-69
2021/01/06 13:57:53;;;;;;;22.98;14.18;;;3.80;99.90;;;;;;5090385;28;20027;-69
2021/01/06 14:03:34;;;;;;;24.80;14.20;;;3.70;99.90;;;;;;5110765;27;20139;-68
2021/01/06 14:06:23;;;;;;;26.60;14.57;;;3.60;99.90;;;;;;5110961;28;20034;-69
2021/01/06 14:09:28;;;;;;;24.50;14.00;;;3.50;99.90;;;;;;5110983;28;20051;-69
2021/01/06 14:12:34;;;;;;;27.45;14.82;;;3.50;99.90;;;;;;5109256;28;20477;-69
2021/01/06 14:15:17;;;;;;;24.45;14.50;;;3.40;99.90;;;;;;5110901;27;20055;-69
2021/01/06 14:18:06;;;;;;;24.67;13.55;;;3.40;99.90;;;;;;5110912;28;20035;-69
2021/01/06 14:21:02;;;;;;;27.65;15.43;;;3.40;99.90;;;;;;5110734;28;20027;-69
2021/01/06 14:23:39;;;;;;;26.90;14.40;;;3.40;99.90;;;;;;5110450;28;20395;-71